sensor_id;sensor_type;location;lat;lon;timestamp;pressure;altitude;pressure_sealevel;temperature;humidity
740;BME280;354;42.694;23.336;2022-07-04T00:00:23;95529.91;;;21.74;100.00
740;BME280;354;42.694;23.336;2022-07-04T00:02:49;95528.03;;;21.74;100.00
740;BME280;354;42.694;23.336;2022-07-04T00:05:15;95530.22;;;21.67;100.00
740;BME280;354;42.694;23.336;2022-07-04T00:07:43;95532.09;;;21.62;100.00
740;BME280;354;42.694;23.336;2022-07-04T00:10:11;95526.75;;;21.62;100.00
740;BME280;354;42.694;23.336;2022-07-04T00:12:37;95518.22;;;21.54;100.00
740;BME280;354;42.694;23.336;2022-07-04T00:15:04;95520.59;;;21.56;100.00
740;BME280;354;42.694;23.336;2022-07-04T00:17:30;95521.94;;;21.58;100.00
740;BME280;354;42.694;23.336;2022-07-04T00:19:55;95525.19;;;21.50;100.00
740;BME280;354;42.694;23.336;2022-07-04T00:22:21;95530.25;;;21.47;100.00
740;BME280;354;42.694;23.336;2022-07-04T00:24:46;95528.41;;;21.42;100.00
740;BME280;354;42.694;23.336;2022-07-04T00:27:12;95526.28;;;21.34;100.00
740;BME280;354;42.694;23.336;2022-07-04T00:29:37;95527.88;;;21.25;100.00
740;BME280;354;42.694;23.336;2022-07-04T00:32:03;95526.28;;;21.24;100.00
740;BME280;354;42.694;23.336;2022-07-04T00:34:29;95526.00;;;21.20;100.00
740;BME280;354;42.694;23.336;2022-07-04T00:36:54;95518.81;;;21.21;100.00
740;BME280;354;42.694;23.336;2022-07-04T00:39:20;95516.13;;;21.21;100.00
740;BME280;354;42.694;23.336;2022-07-04T00:41:46;95512.38;;;21.17;100.00
740;BME280;354;42.694;23.336;2022-07-04T00:44:13;95508.63;;;21.23;100.00
740;BME280;354;42.694;23.336;2022-07-04T00:46:41;95502.75;;;21.16;100.00
740;BME280;354;42.694;23.336;2022-07-04T00:49:07;95517.75;;;21.12;100.00
740;BME280;354;42.694;23.336;2022-07-04T00:51:34;95514.00;;;21.13;100.00
740;BME280;354;42.694;23.336;2022-07-04T00:53:59;95515.06;;;21.07;100.00
740;BME280;354;42.694;23.336;2022-07-04T00:56:26;95511.03;;;21.09;100.00
740;BME280;354;42.694;23.336;2022-07-04T00:58:52;95513.19;;;21.02;100.00
740;BME280;354;42.694;23.336;2022-07-04T01:01:19;95503.31;;;21.02;100.00
740;BME280;354;42.694;23.336;2022-07-04T01:03:45;95505.19;;;21.02;100.00
740;BME280;354;42.694;23.336;2022-07-04T01:06:11;95502.78;;;20.95;100.00
740;BME280;354;42.694;23.336;2022-07-04T01:08:37;95508.41;;;20.84;100.00
740;BME280;354;42.694;23.336;2022-07-04T01:11:05;95502.53;;;20.87;100.00
740;BME280;354;42.694;23.336;2022-07-04T01:13:30;95503.31;;;20.82;100.00
740;BME280;354;42.694;23.336;2022-07-04T01:15:56;95504.94;;;20.88;100.00
740;BME280;354;42.694;23.336;2022-07-04T01:18:21;95509.75;;;20.86;100.00
740;BME280;354;42.694;23.336;2022-07-04T01:20:47;95511.63;;;20.81;100.00
740;BME280;354;42.694;23.336;2022-07-04T01:23:12;95512.16;;;20.77;100.00
740;BME280;354;42.694;23.336;2022-07-04T01:25:38;95493.47;;;20.62;100.00
740;BME280;354;42.694;23.336;2022-07-04T01:28:03;95510.56;;;20.71;100.00
740;BME280;354;42.694;23.336;2022-07-04T01:30:30;95502.00;;;20.69;100.00
740;BME280;354;42.694;23.336;2022-07-04T01:32:56;95508.41;;;20.63;100.00
740;BME280;354;42.694;23.336;2022-07-04T01:35:22;95505.47;;;20.70;100.00
740;BME280;354;42.694;23.336;2022-07-04T01:37:48;95507.09;;;20.66;100.00
740;BME280;354;42.694;23.336;2022-07-04T01:40:14;95505.22;;;20.61;100.00
740;BME280;354;42.694;23.336;2022-07-04T01:42:40;95506.25;;;20.60;100.00
740;BME280;354;42.694;23.336;2022-07-04T01:45:07;95516.16;;;20.60;100.00
740;BME280;354;42.694;23.336;2022-07-04T01:47:33;95510.28;;;20.52;100.00
740;BME280;354;42.694;23.336;2022-07-04T01:49:59;95513.22;;;20.51;100.00
740;BME280;354;42.694;23.336;2022-07-04T01:52:24;95508.69;;;20.51;100.00
740;BME280;354;42.694;23.336;2022-07-04T01:54:49;95504.94;;;20.47;100.00
740;BME280;354;42.694;23.336;2022-07-04T01:57:15;95498.22;;;20.45;100.00
740;BME280;354;42.694;23.336;2022-07-04T01:59:40;95507.31;;;20.39;100.00
740;BME280;354;42.694;23.336;2022-07-04T02:02:24;95510.22;;;20.37;100.00
740;BME280;354;42.694;23.336;2022-07-04T02:04:50;95508.66;;;20.41;100.00
740;BME280;354;42.694;23.336;2022-07-04T02:07:15;95504.88;;;20.37;100.00
740;BME280;354;42.694;23.336;2022-07-04T02:09:41;95507.84;;;20.36;100.00
740;BME280;354;42.694;23.336;2022-07-04T02:12:07;95505.69;;;20.33;100.00
740;BME280;354;42.694;23.336;2022-07-04T02:14:50;95506.25;;;20.35;100.00
740;BME280;354;42.694;23.336;2022-07-04T02:17:16;95507.81;;;20.31;100.00
740;BME280;354;42.694;23.336;2022-07-04T02:19:41;95511.56;;;20.30;100.00
740;BME280;354;42.694;23.336;2022-07-04T02:22:07;95515.84;;;20.36;100.00
740;BME280;354;42.694;23.336;2022-07-04T02:24:32;95509.97;;;20.29;100.00
740;BME280;354;42.694;23.336;2022-07-04T02:26:58;95517.69;;;20.25;100.00
740;BME280;354;42.694;23.336;2022-07-04T02:29:23;95516.63;;;20.26;100.00
740;BME280;354;42.694;23.336;2022-07-04T02:31:48;95517.16;;;20.18;100.00
740;BME280;354;42.694;23.336;2022-07-04T02:34:14;95522.50;;;20.13;100.00
740;BME280;354;42.694;23.336;2022-07-04T02:36:39;95517.16;;;20.13;100.00
740;BME280;354;42.694;23.336;2022-07-04T02:39:05;95514.47;;;20.08;100.00
740;BME280;354;42.694;23.336;2022-07-04T02:41:32;95518.75;;;20.14;100.00
740;BME280;354;42.694;23.336;2022-07-04T02:43:57;95509.41;;;20.11;100.00
740;BME280;354;42.694;23.336;2022-07-04T02:46:23;95512.59;;;20.08;100.00
740;BME280;354;42.694;23.336;2022-07-04T02:48:48;95521.41;;;20.09;100.00
740;BME280;354;42.694;23.336;2022-07-04T02:51:14;95525.94;;;20.08;100.00
740;BME280;354;42.694;23.336;2022-07-04T02:53:39;95528.63;;;20.08;100.00
740;BME280;354;42.694;23.336;2022-07-04T02:56:05;95522.47;;;20.08;100.00
740;BME280;354;42.694;23.336;2022-07-04T02:58:31;95522.22;;;20.09;100.00
740;BME280;354;42.694;23.336;2022-07-04T03:00:57;95528.31;;;19.99;100.00
740;BME280;354;42.694;23.336;2022-07-04T03:03:23;95533.13;;;19.97;100.00
740;BME280;354;42.694;23.336;2022-07-04T03:05:48;95536.84;;;19.91;100.00
740;BME280;354;42.694;23.336;2022-07-04T03:08:14;95547.00;;;19.89;100.00
740;BME280;354;42.694;23.336;2022-07-04T03:10:39;95541.09;;;19.87;100.00
740;BME280;354;42.694;23.336;2022-07-04T03:13:04;95546.94;;;19.79;100.00
740;BME280;354;42.694;23.336;2022-07-04T03:15:31;95547.03;;;19.94;100.00
740;BME280;354;42.694;23.336;2022-07-04T03:17:56;95517.81;;;19.67;100.00
740;BME280;354;42.694;23.336;2022-07-04T03:20:21;95540.84;;;19.94;100.00
740;BME280;354;42.694;23.336;2022-07-04T03:22:47;95549.41;;;19.96;100.00
740;BME280;354;42.694;23.336;2022-07-04T03:25:12;95551.81;;;19.97;100.00
740;BME280;354;42.694;23.336;2022-07-04T03:27:38;95551.31;;;20.00;100.00
740;BME280;354;42.694;23.336;2022-07-04T03:30:03;95548.84;;;19.94;100.00
740;BME280;354;42.694;23.336;2022-07-04T03:32:30;95551.84;;;20.08;100.00
740;BME280;354;42.694;23.336;2022-07-04T03:34:55;95544.91;;;20.07;100.00
740;BME280;354;42.694;23.336;2022-07-04T03:37:20;95537.44;;;20.14;100.00
740;BME280;354;42.694;23.336;2022-07-04T03:39:46;95541.72;;;20.15;100.00
740;BME280;354;42.694;23.336;2022-07-04T03:42:11;95544.97;;;20.22;100.00
740;BME280;354;42.694;23.336;2022-07-04T03:44:36;95548.44;;;20.33;100.00
740;BME280;354;42.694;23.336;2022-07-04T03:47:02;95546.06;;;20.41;100.00
740;BME280;354;42.694;23.336;2022-07-04T03:49:27;95544.75;;;20.54;100.00
740;BME280;354;42.694;23.336;2022-07-04T03:51:53;95545.84;;;20.68;99.50
740;BME280;354;42.694;23.336;2022-07-04T03:54:18;95538.63;;;20.59;100.00
740;BME280;354;42.694;23.336;2022-07-04T03:56:44;95540.50;;;20.68;100.00
740;BME280;354;42.694;23.336;2022-07-04T03:59:09;95544.25;;;20.77;100.00
740;BME280;354;42.694;23.336;2022-07-04T04:01:34;95539.44;;;20.79;100.00
740;BME280;354;42.694;23.336;2022-07-04T04:04:00;95540.75;;;20.82;100.00
740;BME280;354;42.694;23.336;2022-07-04T04:06:54;95530.84;;;20.93;100.00
740;BME280;354;42.694;23.336;2022-07-04T04:09:19;95543.94;;;21.15;100.00
740;BME280;354;42.694;23.336;2022-07-04T04:11:46;95540.47;;;21.19;98.61
740;BME280;354;42.694;23.336;2022-07-04T04:14:11;95546.59;;;21.40;96.04
740;BME280;354;42.694;23.336;2022-07-04T04:16:38;95547.13;;;21.47;95.72
740;BME280;354;42.694;23.336;2022-07-04T04:19:03;95551.94;;;21.55;94.46
740;BME280;354;42.694;23.336;2022-07-04T04:21:29;95553.78;;;21.65;89.14
740;BME280;354;42.694;23.336;2022-07-04T04:23:54;95558.34;;;21.65;88.08
740;BME280;354;42.694;23.336;2022-07-04T04:26:20;95553.78;;;21.60;89.61
740;BME280;354;42.694;23.336;2022-07-04T04:28:45;95552.97;;;21.65;95.01
740;BME280;354;42.694;23.336;2022-07-04T04:31:11;95554.25;;;21.82;90.68
740;BME280;354;42.694;23.336;2022-07-04T04:33:36;95563.03;;;21.93;93.90
740;BME280;354;42.694;23.336;2022-07-04T04:36:01;95550.13;;;22.11;89.66
740;BME280;354;42.694;23.336;2022-07-04T04:38:27;95553.31;;;22.07;93.09
740;BME280;354;42.694;23.336;2022-07-04T04:40:53;95556.41;;;22.40;91.88
740;BME280;354;42.694;23.336;2022-07-04T04:43:18;95563.81;;;22.58;87.05
740;BME280;354;42.694;23.336;2022-07-04T04:45:43;95556.88;;;22.92;84.07
740;BME280;354;42.694;23.336;2022-07-04T04:48:09;95565.25;;;23.43;81.07
740;BME280;354;42.694;23.336;2022-07-04T04:50:35;95563.59;;;24.43;76.66
740;BME280;354;42.694;23.336;2022-07-04T04:53:01;95563.00;;;25.63;70.72
740;BME280;354;42.694;23.336;2022-07-04T04:55:26;95552.31;;;26.54;66.68
740;BME280;354;42.694;23.336;2022-07-04T04:57:52;95562.97;;;27.80;60.15
740;BME280;354;42.694;23.336;2022-07-04T05:00:17;95570.72;;;28.96;58.46
740;BME280;354;42.694;23.336;2022-07-04T05:02:43;95564.56;;;29.51;54.64
740;BME280;354;42.694;23.336;2022-07-04T05:05:08;95564.44;;;29.30;53.63
740;BME280;354;42.694;23.336;2022-07-04T05:07:34;95574.78;;;30.01;52.57
740;BME280;354;42.694;23.336;2022-07-04T05:09:59;95565.59;;;30.43;52.69
740;BME280;354;42.694;23.336;2022-07-04T05:12:25;95563.91;;;30.81;50.03
740;BME280;354;42.694;23.336;2022-07-04T05:14:52;95565.81;;;31.22;47.74
740;BME280;354;42.694;23.336;2022-07-04T05:17:17;95562.31;;;31.67;44.61
740;BME280;354;42.694;23.336;2022-07-04T05:19:43;95557.94;;;32.11;44.25
740;BME280;354;42.694;23.336;2022-07-04T05:22:08;95562.13;;;31.96;44.72
740;BME280;354;42.694;23.336;2022-07-04T05:24:36;95573.91;;;32.13;43.91
740;BME280;354;42.694;23.336;2022-07-04T05:27:05;95566.72;;;32.82;41.07
740;BME280;354;42.694;23.336;2022-07-04T05:29:30;95555.81;;;33.38;39.90
740;BME280;354;42.694;23.336;2022-07-04T05:31:55;95566.09;;;33.00;39.25
740;BME280;354;42.694;23.336;2022-07-04T05:34:21;95571.63;;;33.60;39.34
740;BME280;354;42.694;23.336;2022-07-04T05:36:47;95572.31;;;33.29;39.18
740;BME280;354;42.694;23.336;2022-07-04T05:39:12;95576.94;;;33.13;39.75
740;BME280;354;42.694;23.336;2022-07-04T05:41:37;95577.72;;;32.97;39.23
740;BME280;354;42.694;23.336;2022-07-04T05:44:03;95571.72;;;33.48;38.00
740;BME280;354;42.694;23.336;2022-07-04T05:46:28;95575.78;;;32.98;39.76
740;BME280;354;42.694;23.336;2022-07-04T05:48:54;95561.00;;;33.27;39.97
740;BME280;354;42.694;23.336;2022-07-04T05:51:19;95569.44;;;33.81;38.33
740;BME280;354;42.694;23.336;2022-07-04T05:53:45;95569.19;;;34.34;35.83
740;BME280;354;42.694;23.336;2022-07-04T05:56:10;95561.09;;;33.90;35.41
740;BME280;354;42.694;23.336;2022-07-04T05:58:35;95571.06;;;34.14;34.88
740;BME280;354;42.694;23.336;2022-07-04T06:01:01;95559.09;;;34.38;34.45
740;BME280;354;42.694;23.336;2022-07-04T06:03:26;95570.50;;;34.40;31.95
740;BME280;354;42.694;23.336;2022-07-04T06:05:51;95564.28;;;34.43;31.93
740;BME280;354;42.694;23.336;2022-07-04T06:08:18;95575.44;;;34.34;32.94
740;BME280;354;42.694;23.336;2022-07-04T06:10:45;95578.25;;;34.22;33.12
740;BME280;354;42.694;23.336;2022-07-04T06:13:11;95580.00;;;34.46;33.14
740;BME280;354;42.694;23.336;2022-07-04T06:15:36;95574.97;;;34.48;32.53
740;BME280;354;42.694;23.336;2022-07-04T06:18:02;95573.53;;;34.90;32.06
740;BME280;354;42.694;23.336;2022-07-04T06:20:28;95570.59;;;34.98;32.22
740;BME280;354;42.694;23.336;2022-07-04T06:22:54;95575.91;;;35.10;32.98
740;BME280;354;42.694;23.336;2022-07-04T06:25:20;95582.25;;;35.15;33.18
740;BME280;354;42.694;23.336;2022-07-04T06:27:48;95565.56;;;35.39;31.89
740;BME280;354;42.694;23.336;2022-07-04T06:30:15;95564.53;;;35.47;32.56
740;BME280;354;42.694;23.336;2022-07-04T06:32:45;95561.09;;;35.50;31.63
740;BME280;354;42.694;23.336;2022-07-04T06:35:11;95568.72;;;35.22;33.45
740;BME280;354;42.694;23.336;2022-07-04T06:37:55;95560.50;;;36.06;31.67
740;BME280;354;42.694;23.336;2022-07-04T06:40:21;95562.91;;;35.66;32.33
740;BME280;354;42.694;23.336;2022-07-04T06:42:48;95563.06;;;35.96;31.91
740;BME280;354;42.694;23.336;2022-07-04T06:45:13;95562.09;;;35.61;33.23
740;BME280;354;42.694;23.336;2022-07-04T06:47:39;95568.75;;;36.33;31.39
740;BME280;354;42.694;23.336;2022-07-04T06:50:05;95558.56;;;35.61;32.32
740;BME280;354;42.694;23.336;2022-07-04T06:52:31;95551.06;;;35.81;32.61
740;BME280;354;42.694;23.336;2022-07-04T06:54:56;95556.59;;;36.87;30.98
740;BME280;354;42.694;23.336;2022-07-04T06:57:21;95559.13;;;37.70;30.86
740;BME280;354;42.694;23.336;2022-07-04T06:59:47;95552.53;;;37.37;30.37
740;BME280;354;42.694;23.336;2022-07-04T07:02:12;95554.13;;;38.27;30.12
740;BME280;354;42.694;23.336;2022-07-04T07:04:37;95550.16;;;37.36;31.04
740;BME280;354;42.694;23.336;2022-07-04T07:07:05;95544.81;;;37.50;30.52
740;BME280;354;42.694;23.336;2022-07-04T07:09:30;95547.06;;;38.26;29.75
740;BME280;354;42.694;23.336;2022-07-04T07:11:56;95544.56;;;38.65;28.69
740;BME280;354;42.694;23.336;2022-07-04T07:14:21;95550.44;;;39.55;27.55
740;BME280;354;42.694;23.336;2022-07-04T07:16:47;95549.75;;;38.74;28.57
740;BME280;354;42.694;23.336;2022-07-04T07:19:12;95547.47;;;38.28;29.17
740;BME280;354;42.694;23.336;2022-07-04T07:21:37;95537.19;;;36.99;30.64
740;BME280;354;42.694;23.336;2022-07-04T07:24:03;95537.97;;;37.00;29.44
740;BME280;354;42.694;23.336;2022-07-04T07:26:29;95536.69;;;36.90;29.61
740;BME280;354;42.694;23.336;2022-07-04T07:28:55;95509.81;;;35.93;30.24
740;BME280;354;42.694;23.336;2022-07-04T07:31:20;95525.38;;;34.66;33.28
740;BME280;354;42.694;23.336;2022-07-04T07:33:46;95525.09;;;33.85;33.92
740;BME280;354;42.694;23.336;2022-07-04T07:36:11;95527.06;;;32.84;36.89
740;BME280;354;42.694;23.336;2022-07-04T07:38:37;95523.44;;;31.79;38.54
740;BME280;354;42.694;23.336;2022-07-04T07:41:02;95504.50;;;31.12;39.64
740;BME280;354;42.694;23.336;2022-07-04T07:43:28;95506.19;;;30.72;41.21
740;BME280;354;42.694;23.336;2022-07-04T07:45:54;95517.22;;;30.46;41.98
740;BME280;354;42.694;23.336;2022-07-04T07:48:19;95515.28;;;30.67;41.25
740;BME280;354;42.694;23.336;2022-07-04T07:50:45;95516.84;;;31.10;41.21
740;BME280;354;42.694;23.336;2022-07-04T07:53:10;95518.09;;;31.70;41.38
740;BME280;354;42.694;23.336;2022-07-04T07:55:36;95505.91;;;31.88;39.85
740;BME280;354;42.694;23.336;2022-07-04T07:58:01;95505.47;;;31.98;40.34
740;BME280;354;42.694;23.336;2022-07-04T08:00:26;95497.94;;;32.08;39.73
740;BME280;354;42.694;23.336;2022-07-04T08:02:52;95505.56;;;32.02;40.47
740;BME280;354;42.694;23.336;2022-07-04T08:05:38;95499.19;;;30.41;42.31
740;BME280;354;42.694;23.336;2022-07-04T08:08:03;95500.50;;;29.84;44.36
740;BME280;354;42.694;23.336;2022-07-04T08:10:29;95497.94;;;29.41;46.89
740;BME280;354;42.694;23.336;2022-07-04T08:12:54;95500.56;;;29.20;48.00
740;BME280;354;42.694;23.336;2022-07-04T08:15:21;95498.69;;;29.03;47.94
740;BME280;354;42.694;23.336;2022-07-04T08:17:46;95494.22;;;29.07;50.34
740;BME280;354;42.694;23.336;2022-07-04T08:20:12;95501.72;;;28.84;48.21
740;BME280;354;42.694;23.336;2022-07-04T08:22:37;95500.44;;;28.99;49.04
740;BME280;354;42.694;23.336;2022-07-04T08:25:03;95497.56;;;29.13;50.15
740;BME280;354;42.694;23.336;2022-07-04T08:27:29;95484.00;;;29.13;51.53
740;BME280;354;42.694;23.336;2022-07-04T08:29:54;95489.59;;;29.08;50.54
740;BME280;354;42.694;23.336;2022-07-04T08:32:19;95486.22;;;29.20;51.57
740;BME280;354;42.694;23.336;2022-07-04T08:34:46;95483.63;;;29.32;50.71
740;BME280;354;42.694;23.336;2022-07-04T08:37:12;95479.66;;;29.29;51.14
740;BME280;354;42.694;23.336;2022-07-04T08:39:37;95466.28;;;29.24;50.59
740;BME280;354;42.694;23.336;2022-07-04T08:42:06;95476.63;;;29.22;50.56
740;BME280;354;42.694;23.336;2022-07-04T08:44:39;95471.03;;;29.36;52.08
740;BME280;354;42.694;23.336;2022-07-04T08:47:09;95477.28;;;29.66;52.88
740;BME280;354;42.694;23.336;2022-07-04T08:49:36;95480.22;;;29.90;52.16
740;BME280;354;42.694;23.336;2022-07-04T08:52:05;95476.09;;;30.14;54.36
740;BME280;354;42.694;23.336;2022-07-04T08:54:33;95474.91;;;29.64;51.02
740;BME280;354;42.694;23.336;2022-07-04T08:57:18;95479.28;;;29.78;54.06
740;BME280;354;42.694;23.336;2022-07-04T09:00:06;95482.69;;;29.75;52.91
740;BME280;354;42.694;23.336;2022-07-04T09:02:33;95474.81;;;29.82;53.96
740;BME280;354;42.694;23.336;2022-07-04T09:04:59;95463.56;;;30.01;54.12
740;BME280;354;42.694;23.336;2022-07-04T09:07:26;95478.81;;;30.05;51.88
740;BME280;354;42.694;23.336;2022-07-04T09:09:52;95475.38;;;29.96;54.59
740;BME280;354;42.694;23.336;2022-07-04T09:12:19;95470.03;;;30.17;55.72
740;BME280;354;42.694;23.336;2022-07-04T09:14:44;95469.47;;;30.44;55.28
740;BME280;354;42.694;23.336;2022-07-04T09:17:09;95465.63;;;30.46;51.72
740;BME280;354;42.694;23.336;2022-07-04T09:19:35;95460.75;;;30.39;50.65
740;BME280;354;42.694;23.336;2022-07-04T09:22:07;95456.22;;;30.43;52.52
740;BME280;354;42.694;23.336;2022-07-04T09:24:47;95463.53;;;30.51;46.81
740;BME280;354;42.694;23.336;2022-07-04T09:27:38;95459.28;;;30.41;47.14
740;BME280;354;42.694;23.336;2022-07-04T09:30:05;95463.84;;;30.50;45.81
740;BME280;354;42.694;23.336;2022-07-04T09:35:16;95460.88;;;30.96;46.98
740;BME280;354;42.694;23.336;2022-07-04T09:37:45;95455.47;;;31.09;45.81
740;BME280;354;42.694;23.336;2022-07-04T09:40:21;95445.66;;;31.16;48.42
740;BME280;354;42.694;23.336;2022-07-04T09:42:47;95442.88;;;31.04;47.43
740;BME280;354;42.694;23.336;2022-07-04T09:45:13;95441.88;;;31.09;45.79
740;BME280;354;42.694;23.336;2022-07-04T09:47:40;95431.22;;;30.91;46.11
740;BME280;354;42.694;23.336;2022-07-04T09:52:47;95441.00;;;31.05;46.25
740;BME280;354;42.694;23.336;2022-07-04T09:55:20;95441.38;;;30.82;45.17
740;BME280;354;42.694;23.336;2022-07-04T09:57:45;95437.25;;;30.76;44.04
740;BME280;354;42.694;23.336;2022-07-04T10:00:29;95441.47;;;30.74;46.94
740;BME280;354;42.694;23.336;2022-07-04T10:02:57;95441.00;;;30.72;46.66
740;BME280;354;42.694;23.336;2022-07-04T10:05:27;95438.47;;;30.66;47.79
740;BME280;354;42.694;23.336;2022-07-04T10:07:57;95442.47;;;30.69;49.81
740;BME280;354;42.694;23.336;2022-07-04T10:10:34;95445.16;;;30.69;47.43
740;BME280;354;42.694;23.336;2022-07-04T10:13:10;95442.50;;;30.81;47.54
740;BME280;354;42.694;23.336;2022-07-04T10:15:38;95448.06;;;30.85;48.47
740;BME280;354;42.694;23.336;2022-07-04T10:18:05;95442.31;;;30.99;47.66
740;BME280;354;42.694;23.336;2022-07-04T10:20:32;95418.03;;;30.81;51.03
740;BME280;354;42.694;23.336;2022-07-04T10:22:59;95440.47;;;30.78;51.62
740;BME280;354;42.694;23.336;2022-07-04T10:25:25;95438.19;;;30.80;49.13
740;BME280;354;42.694;23.336;2022-07-04T10:27:51;95438.28;;;30.72;51.17
740;BME280;354;42.694;23.336;2022-07-04T10:30:25;95440.13;;;30.80;51.96
740;BME280;354;42.694;23.336;2022-07-04T10:32:51;95433.56;;;30.81;50.77
740;BME280;354;42.694;23.336;2022-07-04T10:38:17;95422.28;;;31.03;50.56
740;BME280;354;42.694;23.336;2022-07-04T10:40:52;95422.59;;;31.35;48.85
740;BME280;354;42.694;23.336;2022-07-04T10:49:08;95420.41;;;31.16;48.79
740;BME280;354;42.694;23.336;2022-07-04T10:51:46;95409.53;;;31.16;50.42
740;BME280;354;42.694;23.336;2022-07-04T10:54:32;95405.25;;;31.27;49.26
740;BME280;354;42.694;23.336;2022-07-04T10:59:37;95400.28;;;31.29;50.46
740;BME280;354;42.694;23.336;2022-07-04T11:07:09;95395.03;;;31.12;49.96
740;BME280;354;42.694;23.336;2022-07-04T11:09:34;95394.72;;;31.26;50.12
740;BME280;354;42.694;23.336;2022-07-04T11:12:02;95399.47;;;31.53;52.07
740;BME280;354;42.694;23.336;2022-07-04T11:14:41;95396.38;;;31.79;49.47
740;BME280;354;42.694;23.336;2022-07-04T11:17:19;95391.88;;;31.83;49.92
740;BME280;354;42.694;23.336;2022-07-04T11:19:45;95397.47;;;32.15;48.46
740;BME280;354;42.694;23.336;2022-07-04T11:22:11;95394.13;;;32.34;47.68
740;BME280;354;42.694;23.336;2022-07-04T11:24:39;95389.97;;;32.36;47.78
740;BME280;354;42.694;23.336;2022-07-04T11:27:07;95383.75;;;32.51;47.97
740;BME280;354;42.694;23.336;2022-07-04T11:29:36;95397.75;;;32.66;46.94
740;BME280;354;42.694;23.336;2022-07-04T11:32:02;95377.94;;;32.37;46.70
740;BME280;354;42.694;23.336;2022-07-04T11:34:32;95383.22;;;32.34;46.26
740;BME280;354;42.694;23.336;2022-07-04T11:36:58;95382.78;;;32.44;47.39
740;BME280;354;42.694;23.336;2022-07-04T11:39:26;95373.28;;;32.25;47.74
740;BME280;354;42.694;23.336;2022-07-04T11:41:53;95376.88;;;32.42;49.12
740;BME280;354;42.694;23.336;2022-07-04T11:44:39;95375.47;;;32.76;47.25
740;BME280;354;42.694;23.336;2022-07-04T11:52:19;95371.13;;;33.19;47.25
740;BME280;354;42.694;23.336;2022-07-04T11:54:46;95362.50;;;33.01;47.61
740;BME280;354;42.694;23.336;2022-07-04T11:57:23;95357.81;;;33.33;46.26
740;BME280;354;42.694;23.336;2022-07-04T12:00:02;95351.69;;;33.71;46.60
740;BME280;354;42.694;23.336;2022-07-04T12:02:30;95356.34;;;34.06;44.19
740;BME280;354;42.694;23.336;2022-07-04T12:04:57;95350.09;;;34.05;44.63
740;BME280;354;42.694;23.336;2022-07-04T12:07:27;95354.13;;;34.12;43.84
740;BME280;354;42.694;23.336;2022-07-04T12:09:54;95346.06;;;33.80;43.49
740;BME280;354;42.694;23.336;2022-07-04T12:12:21;95327.66;;;33.42;45.31
740;BME280;354;42.694;23.336;2022-07-04T12:17:36;95345.53;;;33.74;44.32
740;BME280;354;42.694;23.336;2022-07-04T12:20:13;95338.28;;;33.98;44.99
740;BME280;354;42.694;23.336;2022-07-04T12:22:55;95324.19;;;34.34;44.79
740;BME280;354;42.694;23.336;2022-07-04T12:28:00;95325.25;;;34.49;45.17
740;BME280;354;42.694;23.336;2022-07-04T12:30:29;95314.59;;;34.64;44.69
740;BME280;354;42.694;23.336;2022-07-04T12:33:00;95321.22;;;34.43;42.62
740;BME280;354;42.694;23.336;2022-07-04T12:35:46;95316.94;;;34.03;44.47
740;BME280;354;42.694;23.336;2022-07-04T12:41:01;95320.28;;;33.42;47.07
740;BME280;354;42.694;23.336;2022-07-04T12:48:37;95317.72;;;32.70;46.49
740;BME280;354;42.694;23.336;2022-07-04T12:53:44;95315.16;;;32.62;48.59
740;BME280;354;42.694;23.336;2022-07-04T12:56:27;95317.25;;;32.37;50.12
740;BME280;354;42.694;23.336;2022-07-04T12:58:53;95310.97;;;32.08;50.13
740;BME280;354;42.694;23.336;2022-07-04T13:01:18;95309.69;;;32.18;49.70
740;BME280;354;42.694;23.336;2022-07-04T13:03:44;95307.63;;;32.27;50.22
740;BME280;354;42.694;23.336;2022-07-04T13:06:09;95311.44;;;32.38;50.29
740;BME280;354;42.694;23.336;2022-07-04T13:08:34;95312.41;;;32.46;51.68
740;BME280;354;42.694;23.336;2022-07-04T13:11:00;95304.16;;;32.42;49.97
740;BME280;354;42.694;23.336;2022-07-04T13:13:44;95304.25;;;32.46;49.06
740;BME280;354;42.694;23.336;2022-07-04T13:16:09;95302.75;;;32.48;48.52
740;BME280;354;42.694;23.336;2022-07-04T13:18:34;95297.66;;;32.47;49.28
740;BME280;354;42.694;23.336;2022-07-04T13:21:01;95303.44;;;32.45;47.03
740;BME280;354;42.694;23.336;2022-07-04T13:23:26;95290.81;;;32.37;47.59
740;BME280;354;42.694;23.336;2022-07-04T13:25:52;95294.50;;;32.45;47.64
740;BME280;354;42.694;23.336;2022-07-04T13:28:17;95287.13;;;32.45;47.99
740;BME280;354;42.694;23.336;2022-07-04T13:30:43;95293.72;;;32.60;48.34
740;BME280;354;42.694;23.336;2022-07-04T13:33:08;95293.22;;;32.70;48.42
740;BME280;354;42.694;23.336;2022-07-04T13:35:33;95291.97;;;32.68;47.42
740;BME280;354;42.694;23.336;2022-07-04T13:37:59;95280.81;;;32.73;47.13
740;BME280;354;42.694;23.336;2022-07-04T13:40:24;95281.34;;;32.78;47.75
740;BME280;354;42.694;23.336;2022-07-04T13:42:49;95271.84;;;32.72;48.39
740;BME280;354;42.694;23.336;2022-07-04T13:45:24;95277.06;;;32.93;48.36
740;BME280;354;42.694;23.336;2022-07-04T13:47:51;95250.75;;;32.85;48.56
740;BME280;354;42.694;23.336;2022-07-04T13:50:17;95278.38;;;32.99;49.30
740;BME280;354;42.694;23.336;2022-07-04T13:52:43;95267.03;;;32.66;48.63
740;BME280;354;42.694;23.336;2022-07-04T13:55:09;95261.94;;;32.64;46.61
740;BME280;354;42.694;23.336;2022-07-04T13:57:35;95260.69;;;32.62;47.46
740;BME280;354;42.694;23.336;2022-07-04T14:00:02;95261.47;;;32.46;46.95
740;BME280;354;42.694;23.336;2022-07-04T14:02:28;95250.16;;;32.60;48.10
740;BME280;354;42.694;23.336;2022-07-04T14:04:53;95251.38;;;32.63;48.79
740;BME280;354;42.694;23.336;2022-07-04T14:07:19;95257.34;;;32.37;46.87
740;BME280;354;42.694;23.336;2022-07-04T14:09:44;95251.97;;;31.96;47.12
740;BME280;354;42.694;23.336;2022-07-04T14:12:10;95252.19;;;31.91;48.58